createdAt,value
2023-01-17T00:02:01.264Z,86.22
2023-01-17T00:04:47.923Z,86.78
2023-01-17T00:07:36.393Z,86.38
2023-01-17T00:10:08.691Z,86.69
2023-01-17T00:12:37.595Z,87.15
2023-01-17T00:15:09.989Z,86.42
2023-01-17T00:17:38.286Z,87.20
2023-01-17T00:20:26.176Z,86.93
2023-01-17T00:23:12.238Z,87.27
2023-01-17T00:25:59.816Z,87.15
2023-01-17T00:28:27.819Z,86.83
2023-01-17T00:30:56.470Z,86.93
2023-01-17T00:33:24.581Z,86.28
2023-01-17T00:35:53.088Z,86.49
2023-01-17T00:38:22.269Z,86.43
2023-01-17T00:40:50.928Z,86.80
2023-01-17T00:43:40.020Z,86.72
2023-01-17T00:46:27.351Z,85.63
2023-01-17T00:49:13.462Z,85.88
2023-01-17T00:51:59.464Z,85.76
2023-01-17T00:54:45.674Z,86.34
2023-01-17T00:57:31.780Z,85.82
2023-01-17T01:00:17.930Z,85.48
2023-01-17T01:03:04.966Z,85.54
2023-01-17T01:05:51.160Z,85.10
2023-01-17T01:08:40.532Z,84.82
2023-01-17T01:11:29.576Z,84.37
2023-01-17T01:14:16.136Z,84.55
2023-01-17T01:17:02.071Z,84.64
2023-01-17T01:19:49.399Z,83.68
2023-01-17T01:22:35.234Z,82.40
2023-01-17T01:25:21.469Z,81.94
2023-01-17T01:28:07.530Z,80.22
2023-01-17T01:30:53.715Z,80.28
2023-01-17T01:33:21.239Z,79.67
2023-01-17T01:35:53.699Z,79.85
2023-01-17T01:38:24.389Z,79.85
2023-01-17T01:40:55.311Z,79.01
2023-01-17T01:43:44.335Z,78.99
2023-01-17T01:46:17.074Z,78.75
2023-01-17T01:48:50.595Z,78.58
2023-01-17T01:51:25.207Z,78.46
2023-01-17T01:54:00.631Z,78.24
2023-01-17T01:56:30.284Z,78.32
2023-01-17T01:59:00.579Z,78.29
2023-01-17T02:01:31.024Z,79.21
2023-01-17T02:03:59.560Z,78.60
2023-01-17T02:06:33.547Z,79.11
2023-01-17T02:09:06.322Z,79.55
2023-01-17T02:11:36.166Z,79.29
2023-01-17T02:14:04.786Z,79.50
2023-01-17T02:16:48.821Z,78.75
2023-01-17T02:20:16.500Z,79.25
2023-01-17T02:23:34.064Z,79.62
2023-01-17T02:26:49.382Z,80.42
2023-01-17T02:30:21.601Z,80.33
2023-01-17T02:33:02.928Z,80.00
2023-01-17T02:35:41.923Z,79.79
2023-01-17T02:38:23.972Z,80.06
2023-01-17T02:40:58.614Z,79.76
2023-01-17T02:43:27.472Z,80.13
2023-01-17T02:45:55.781Z,80.22
2023-01-17T02:48:29.798Z,79.90
2023-01-17T02:51:29.149Z,80.77
2023-01-17T02:54:43.706Z,80.99
2023-01-17T02:57:28.527Z,80.85
2023-01-17T03:00:06.641Z,81.07
2023-01-17T03:02:44.823Z,81.02
2023-01-17T03:05:20.381Z,81.59
2023-01-17T03:07:50.885Z,81.85
2023-01-17T03:10:21.040Z,81.54
2023-01-17T03:12:49.411Z,81.74
2023-01-17T03:15:18.716Z,81.13
2023-01-17T03:17:50.526Z,80.90
2023-01-17T03:20:22.544Z,80.72
2023-01-17T03:22:51.504Z,81.18
2023-01-17T03:25:19.865Z,81.05
2023-01-17T03:27:48.578Z,81.71
2023-01-17T03:30:17.868Z,81.63
2023-01-17T03:32:46.064Z,81.75
2023-01-17T03:35:14.530Z,82.25
2023-01-17T03:37:44.297Z,82.81
2023-01-17T03:40:13.380Z,82.27
2023-01-17T03:42:41.791Z,82.87
2023-01-17T03:45:11.419Z,83.04
2023-01-17T03:47:39.918Z,84.49
2023-01-17T03:50:09.358Z,85.47
2023-01-17T03:52:37.717Z,87.80
2023-01-17T03:55:08.765Z,89.91
2023-01-17T03:57:37.596Z,90.86
2023-01-17T04:00:07.326Z,91.29
2023-01-17T04:02:35.730Z,91.54
2023-01-17T04:05:04.580Z,90.77
2023-01-17T04:07:32.803Z,90.70
2023-01-17T04:10:01.319Z,90.78
2023-01-17T04:12:30.990Z,90.60
2023-01-17T04:14:59.346Z,91.27
2023-01-17T04:17:27.633Z,92.00
2023-01-17T04:19:55.842Z,92.17
2023-01-17T04:22:24.044Z,92.40
2023-01-17T04:24:52.298Z,92.28
2023-01-17T04:27:20.530Z,91.88
2023-01-17T04:29:50.204Z,91.98
2023-01-17T04:32:18.846Z,92.31
2023-01-17T04:34:47.225Z,92.14
2023-01-17T04:37:15.415Z,91.87
2023-01-17T04:39:43.645Z,92.80
2023-01-17T04:42:12.062Z,92.89
2023-01-17T04:44:40.316Z,92.60
2023-01-17T04:47:09.935Z,92.86
2023-01-17T04:49:38.334Z,92.04
2023-01-17T04:52:06.866Z,93.18
2023-01-17T04:54:35.268Z,92.62
2023-01-17T04:57:03.686Z,93.19
2023-01-17T04:59:32.000Z,92.58
2023-01-17T05:02:00.313Z,93.18
2023-01-17T05:04:30.039Z,93.03
2023-01-17T05:06:58.392Z,93.00
2023-01-17T05:09:26.761Z,92.92
2023-01-17T05:11:55.831Z,93.08
2023-01-17T05:14:26.246Z,92.80
2023-01-17T05:16:54.684Z,93.14
2023-01-17T05:19:23.286Z,93.40
2023-01-17T05:21:53.321Z,93.68
2023-01-17T05:24:22.031Z,93.20
2023-01-17T05:26:54.750Z,90.83
2023-01-17T05:29:23.439Z,90.26
2023-01-17T05:31:51.883Z,88.94
2023-01-17T05:34:20.134Z,88.36
2023-01-17T05:36:48.555Z,87.75
2023-01-17T05:39:18.434Z,87.25
2023-01-17T05:41:47.692Z,85.77
2023-01-17T05:44:16.247Z,85.76
2023-01-17T05:46:45.166Z,85.23
2023-01-17T05:49:13.533Z,85.00
2023-01-17T05:51:41.836Z,85.07
2023-01-17T05:54:10.181Z,84.02
2023-01-17T05:56:40.034Z,82.45
2023-01-17T05:59:08.583Z,82.46
2023-01-17T06:01:36.900Z,81.90
2023-01-17T06:04:05.412Z,81.69
2023-01-17T06:06:34.251Z,82.22
2023-01-17T06:09:02.549Z,82.42
2023-01-17T06:11:31.746Z,83.12
2023-01-17T06:14:01.450Z,83.57
2023-01-17T06:16:30.891Z,84.42
2023-01-17T06:18:59.213Z,85.48
2023-01-17T06:21:27.584Z,86.16
2023-01-17T06:23:56.426Z,85.92
2023-01-17T06:26:25.078Z,86.36
2023-01-17T06:28:53.347Z,86.14
2023-01-17T06:31:23.031Z,86.57
2023-01-17T06:33:51.344Z,86.13
2023-01-17T06:36:19.797Z,85.78
2023-01-17T06:38:51.694Z,84.86
2023-01-17T06:41:20.269Z,83.93
2023-01-17T06:43:49.096Z,82.17
2023-01-17T06:46:17.497Z,82.71
2023-01-17T06:48:48.657Z,82.55
2023-01-17T06:51:17.656Z,82.20
2023-01-17T06:53:46.179Z,81.48
2023-01-17T06:56:14.539Z,81.08
2023-01-17T06:58:43.088Z,81.93
2023-01-17T07:01:13.824Z,81.54
2023-01-17T07:03:42.837Z,81.93
2023-01-17T07:06:12.530Z,82.56
2023-01-17T07:08:41.261Z,82.60
2023-01-17T07:11:09.698Z,82.29
2023-01-17T07:13:39.304Z,82.48
2023-01-17T07:16:09.422Z,82.71
2023-01-17T07:18:37.714Z,82.99
2023-01-17T07:21:06.259Z,82.55
2023-01-17T07:23:36.081Z,82.18
2023-01-17T07:26:04.612Z,82.82
2023-01-17T07:28:33.087Z,82.84
2023-01-17T07:31:07.965Z,82.58
2023-01-17T07:33:36.609Z,82.54
2023-01-17T07:36:07.691Z,82.24
2023-01-17T07:38:37.643Z,82.20
2023-01-17T07:41:06.386Z,82.21
2023-01-17T07:43:36.468Z,81.95
2023-01-17T07:46:07.834Z,81.56
2023-01-17T07:48:36.171Z,82.06
2023-01-17T07:51:06.499Z,81.09
2023-01-17T07:53:34.790Z,80.17
2023-01-17T07:56:06.302Z,79.93
2023-01-17T07:58:35.456Z,80.22
2023-01-17T08:01:05.309Z,81.46
2023-01-17T08:03:36.519Z,82.22
2023-01-17T08:06:05.544Z,83.23
2023-01-17T08:08:33.951Z,80.98
2023-01-17T08:11:02.316Z,80.83
2023-01-17T08:13:32.098Z,80.13
2023-01-17T08:16:02.342Z,80.25
2023-01-17T08:18:31.121Z,81.61
2023-01-17T08:20:59.476Z,82.13
2023-01-17T08:23:28.395Z,80.62
2023-01-17T08:26:01.743Z,79.87
2023-01-17T08:28:31.376Z,78.83
2023-01-17T08:30:59.776Z,78.95
2023-01-17T08:33:28.038Z,79.04
2023-01-17T08:35:56.899Z,79.43
2023-01-17T08:38:25.480Z,80.67
2023-01-17T08:40:54.111Z,82.13
2023-01-17T08:43:22.434Z,83.49
2023-01-17T08:45:55.867Z,84.26
2023-01-17T08:48:24.189Z,85.52
2023-01-17T08:50:52.970Z,85.99
2023-01-17T08:53:23.249Z,85.62
2023-01-17T08:55:59.526Z,85.40
2023-01-17T08:58:30.587Z,86.01
2023-01-17T09:01:03.591Z,84.86
2023-01-17T09:03:32.816Z,84.91
2023-01-17T09:06:06.777Z,83.52
2023-01-17T09:08:36.112Z,82.91
2023-01-17T09:11:05.750Z,82.29
2023-01-17T09:13:34.361Z,81.29
2023-01-17T09:16:05.473Z,81.60
2023-01-17T09:18:36.170Z,82.52
2023-01-17T09:21:12.336Z,82.48
2023-01-17T09:23:40.637Z,81.98
2023-01-17T09:26:09.032Z,81.85
2023-01-17T09:28:41.041Z,81.89
2023-01-17T09:31:11.251Z,80.92
2023-01-17T09:33:41.628Z,80.74
2023-01-17T09:36:10.617Z,79.85
2023-01-17T09:38:40.001Z,79.89
2023-01-17T09:41:22.982Z,79.95
2023-01-17T09:43:55.733Z,80.62
2023-01-17T09:46:30.804Z,80.99
2023-01-17T09:49:04.451Z,80.94
2023-01-17T09:51:33.468Z,79.47
2023-01-17T09:54:02.811Z,79.33
2023-01-17T09:56:36.996Z,79.68
2023-01-17T09:59:32.704Z,79.63
2023-01-17T10:02:37.017Z,80.05
2023-01-17T10:05:27.031Z,79.60
2023-01-17T10:08:14.291Z,79.80
2023-01-17T10:10:48.557Z,79.33
2023-01-17T10:13:31.409Z,79.17
2023-01-17T10:16:16.386Z,77.22
2023-01-17T10:19:26.474Z,77.18
2023-01-17T10:22:07.507Z,78.33
2023-01-17T10:25:17.322Z,76.44
2023-01-17T10:27:55.197Z,75.37
2023-01-17T10:30:30.383Z,75.69
2023-01-17T10:33:03.848Z,75.12
2023-01-17T10:35:38.064Z,74.08
2023-01-17T10:38:13.523Z,73.41
2023-01-17T10:40:50.297Z,73.92
2023-01-17T10:43:26.437Z,73.79
2023-01-17T10:45:57.428Z,73.31
2023-01-17T10:48:38.682Z,73.12
2023-01-17T10:51:27.471Z,73.59
2023-01-17T10:54:10.502Z,73.82
2023-01-17T10:56:41.586Z,70.70
2023-01-17T10:59:22.806Z,71.00
2023-01-17T11:01:51.481Z,66.40
2023-01-17T11:04:23.511Z,64.07
2023-01-17T11:07:13.666Z,64.50
2023-01-17T11:09:44.340Z,63.85
2023-01-17T11:12:28.576Z,64.23
2023-01-17T11:15:07.572Z,62.84
2023-01-17T11:17:38.842Z,60.80
2023-01-17T11:20:11.047Z,59.53
2023-01-17T11:22:41.029Z,60.38
2023-01-17T11:25:23.222Z,60.82
2023-01-17T11:28:02.706Z,60.27
2023-01-17T11:30:31.056Z,59.01
2023-01-17T11:33:01.129Z,59.71
2023-01-17T11:35:31.200Z,58.67
2023-01-17T11:38:08.146Z,57.93
2023-01-17T11:40:42.549Z,57.11
2023-01-17T11:43:23.131Z,56.46
2023-01-17T11:46:18.131Z,57.66
2023-01-17T11:48:53.449Z,57.31
2023-01-17T11:51:28.250Z,57.44
2023-01-17T11:54:17.653Z,57.76
2023-01-17T11:56:46.397Z,55.90
2023-01-17T11:59:28.672Z,56.27
2023-01-17T12:02:31.919Z,56.68
2023-01-17T12:05:24.468Z,55.73
2023-01-17T12:08:00.050Z,55.62
2023-01-17T12:10:37.988Z,54.72
2023-01-17T12:13:31.049Z,53.19
2023-01-17T12:16:28.969Z,52.70
2023-01-17T12:19:28.685Z,53.06
2023-01-17T12:22:14.070Z,53.53
2023-01-17T12:25:03.454Z,51.30
2023-01-17T12:27:43.658Z,50.80
2023-01-17T12:30:34.477Z,51.21
2023-01-17T12:33:20.949Z,50.03
2023-01-17T12:35:53.889Z,51.23
2023-01-17T12:38:32.788Z,50.86
2023-01-17T12:41:09.703Z,50.87
2023-01-17T12:43:42.465Z,50.37
2023-01-17T12:46:21.048Z,50.89
2023-01-17T12:48:52.910Z,50.37
2023-01-17T12:51:27.704Z,50.06
2023-01-17T12:54:04.216Z,50.57
2023-01-17T12:56:37.634Z,49.96
2023-01-17T12:59:17.856Z,50.29
2023-01-17T13:01:57.452Z,49.90
2023-01-17T13:04:30.741Z,49.20
2023-01-17T13:07:11.283Z,48.42
2023-01-17T13:09:47.293Z,48.31
2023-01-17T13:12:19.149Z,48.60
2023-01-17T13:14:49.840Z,48.30
2023-01-17T13:17:36.030Z,49.19
2023-01-17T13:20:14.335Z,49.01
2023-01-17T13:22:44.444Z,48.35
2023-01-17T13:25:30.788Z,49.17
2023-01-17T13:28:19.913Z,49.74
2023-01-17T13:31:22.226Z,49.47
2023-01-17T13:34:16.122Z,49.34
2023-01-17T13:37:04.611Z,49.83
2023-01-17T13:39:55.961Z,49.45
2023-01-17T13:42:30.560Z,49.00
2023-01-17T13:44:59.452Z,49.38
2023-01-17T13:47:41.562Z,49.03
2023-01-17T13:50:50.917Z,49.70
2023-01-17T13:53:56.313Z,49.30
2023-01-17T13:56:35.706Z,48.92
2023-01-17T13:59:27.751Z,48.77
2023-01-17T14:01:56.606Z,49.23
2023-01-17T14:05:05.521Z,48.66
2023-01-17T14:07:36.247Z,49.05
2023-01-17T14:10:34.370Z,49.64
2023-01-17T14:13:05.324Z,50.64
2023-01-17T14:15:36.236Z,49.79
2023-01-17T14:18:08.311Z,49.49
2023-01-17T14:21:07.332Z,50.12
2023-01-17T14:23:50.884Z,50.55
2023-01-17T14:26:33.311Z,49.83
2023-01-17T14:30:03.898Z,49.92
2023-01-17T14:32:36.264Z,49.73
2023-01-17T14:35:06.485Z,49.93
2023-01-17T14:37:45.725Z,50.53
2023-01-17T14:40:25.970Z,49.78
2023-01-17T14:43:01.997Z,49.17
2023-01-17T14:45:33.168Z,49.12
2023-01-17T14:48:05.913Z,49.77
2023-01-17T14:50:38.986Z,49.77
2023-01-17T14:53:18.017Z,49.14
2023-01-17T14:55:56.598Z,49.96
2023-01-17T14:58:27.784Z,49.88
2023-01-17T15:01:01.027Z,49.62
2023-01-17T15:03:31.630Z,50.10
2023-01-17T15:06:12.182Z,50.35
2023-01-17T15:08:41.881Z,49.66
2023-01-17T15:11:18.581Z,49.55
2023-01-17T15:13:50.129Z,49.87
2023-01-17T15:16:23.016Z,49.67
2023-01-17T15:18:51.973Z,49.04
2023-01-17T15:21:23.980Z,48.82
2023-01-17T15:23:56.469Z,49.15
2023-01-17T15:26:28.176Z,49.22
2023-01-17T15:29:05.269Z,49.10
2023-01-17T15:31:43.492Z,49.66
2023-01-17T15:34:25.172Z,49.85
2023-01-17T15:36:56.848Z,49.93
2023-01-17T15:39:30.146Z,49.39
2023-01-17T15:42:01.591Z,49.46
2023-01-17T15:44:47.574Z,49.94
2023-01-17T15:47:30.354Z,50.24
2023-01-17T15:49:59.561Z,50.04
2023-01-17T15:52:29.144Z,50.57
2023-01-17T15:55:14.420Z,49.69
2023-01-17T15:57:48.483Z,50.42
2023-01-17T16:00:26.417Z,50.12
2023-01-17T16:02:57.707Z,50.94
2023-01-17T16:05:47.091Z,50.58
2023-01-17T16:08:52.942Z,50.67
2023-01-17T16:11:22.619Z,50.17
2023-01-17T16:13:50.893Z,50.96
2023-01-17T16:16:25.866Z,51.27
2023-01-17T16:19:00.936Z,50.92
2023-01-17T16:21:31.399Z,50.77
2023-01-17T16:24:01.359Z,51.09
2023-01-17T16:26:31.204Z,51.64
2023-01-17T16:28:59.479Z,52.70
2023-01-17T16:31:28.027Z,52.66
2023-01-17T16:33:56.421Z,52.63
2023-01-17T16:36:24.737Z,52.27
2023-01-17T16:38:53.725Z,52.72
2023-01-17T16:41:25.156Z,52.74
2023-01-17T16:44:03.422Z,52.90
2023-01-17T16:46:32.316Z,52.86
2023-01-17T16:49:02.076Z,53.68
2023-01-17T16:51:30.401Z,53.38
2023-01-17T16:53:59.495Z,53.15
2023-01-17T16:56:27.944Z,52.17
2023-01-17T16:58:56.681Z,53.14
2023-01-17T17:01:26.428Z,53.06
2023-01-17T17:03:55.040Z,52.70
2023-01-17T17:06:23.907Z,53.51
2023-01-17T17:08:52.322Z,52.64
2023-01-17T17:11:23.875Z,53.04
2023-01-17T17:13:53.465Z,53.08
2023-01-17T17:16:24.155Z,53.28
2023-01-17T17:18:59.603Z,53.59
2023-01-17T17:21:29.526Z,53.53
2023-01-17T17:24:00.005Z,53.51
2023-01-17T17:26:31.841Z,53.87
2023-01-17T17:29:00.277Z,53.74
2023-01-17T17:31:28.949Z,53.25
2023-01-17T17:34:01.855Z,53.61
2023-01-17T17:36:31.283Z,54.17
2023-01-17T17:39:00.103Z,55.48
2023-01-17T17:41:30.785Z,56.55
2023-01-17T17:44:01.144Z,57.51
2023-01-17T17:46:30.678Z,59.45
2023-01-17T17:49:01.428Z,61.66
2023-01-17T17:51:32.615Z,63.31
2023-01-17T17:54:03.137Z,66.13
2023-01-17T17:56:33.439Z,66.68
2023-01-17T17:59:03.390Z,68.28
2023-01-17T18:01:32.126Z,69.90
2023-01-17T18:04:04.709Z,71.10
2023-01-17T18:06:34.395Z,72.20
2023-01-17T18:09:03.353Z,72.47
2023-01-17T18:11:32.156Z,73.07
2023-01-17T18:14:03.814Z,73.89
2023-01-17T18:16:35.601Z,73.96
2023-01-17T18:19:06.335Z,74.22
2023-01-17T18:21:37.548Z,73.54
2023-01-17T18:24:09.331Z,74.15
2023-01-17T18:26:40.285Z,74.67
2023-01-17T18:29:11.327Z,75.59
2023-01-17T18:31:39.810Z,75.56
2023-01-17T18:34:12.098Z,75.85
2023-01-17T18:36:41.028Z,76.16
2023-01-17T18:39:14.604Z,76.32
2023-01-17T18:41:43.768Z,76.26
2023-01-17T18:44:12.613Z,76.62
2023-01-17T18:46:42.161Z,76.88
2023-01-17T18:49:19.168Z,76.22
2023-01-17T18:51:50.735Z,76.49
2023-01-17T18:54:20.109Z,77.04
2023-01-17T18:56:49.207Z,77.56
2023-01-17T18:59:18.452Z,77.74
2023-01-17T19:01:47.283Z,77.81
2023-01-17T19:04:18.022Z,77.79
2023-01-17T19:06:48.408Z,77.99
2023-01-17T19:09:17.644Z,78.21
2023-01-17T19:11:47.536Z,78.30
2023-01-17T19:14:16.063Z,79.12
2023-01-17T19:16:45.028Z,79.18
2023-01-17T19:19:19.773Z,79.59
2023-01-17T19:21:51.313Z,80.01
2023-01-17T19:24:20.099Z,79.99
2023-01-17T19:26:53.187Z,80.44
2023-01-17T19:29:22.504Z,80.03
2023-01-17T19:31:50.961Z,79.99
2023-01-17T19:34:20.791Z,81.12
2023-01-17T19:36:49.181Z,81.13
2023-01-17T19:39:17.499Z,81.72
2023-01-17T19:41:47.313Z,81.98
2023-01-17T19:44:16.438Z,81.75
2023-01-17T19:46:46.208Z,82.66
2023-01-17T19:49:16.300Z,82.52
2023-01-17T19:51:46.272Z,81.91
2023-01-17T19:54:15.101Z,82.40
2023-01-17T19:56:43.551Z,82.36
2023-01-17T19:59:13.686Z,81.88
2023-01-17T20:01:42.285Z,82.42
2023-01-17T20:04:12.736Z,83.01
2023-01-17T20:06:41.373Z,83.13
2023-01-17T20:09:11.570Z,82.63
2023-01-17T20:11:49.966Z,82.79
2023-01-17T20:14:44.347Z,82.70
2023-01-17T20:17:12.742Z,83.42
2023-01-17T20:19:40.980Z,83.61
2023-01-17T20:22:09.366Z,83.30
2023-01-17T20:24:46.065Z,83.91
2023-01-17T20:27:15.235Z,84.03
2023-01-17T20:29:45.343Z,83.39
2023-01-17T20:32:13.660Z,83.92
2023-01-17T20:34:44.066Z,84.21
2023-01-17T20:37:13.823Z,84.11
2023-01-17T20:39:43.650Z,83.84
2023-01-17T20:42:12.017Z,84.54
2023-01-17T20:44:40.644Z,83.92
2023-01-17T20:47:09.113Z,84.00
2023-01-17T20:49:37.437Z,84.10
2023-01-17T20:52:06.402Z,84.44
2023-01-17T20:54:35.592Z,84.55
2023-01-17T20:57:05.471Z,84.26
2023-01-17T20:59:33.725Z,84.70
2023-01-17T21:02:02.382Z,85.14
2023-01-17T21:04:31.089Z,84.41
2023-01-17T21:06:59.364Z,84.91
2023-01-17T21:09:27.673Z,84.80
2023-01-17T21:12:01.187Z,85.48
2023-01-17T21:14:31.259Z,85.32
2023-01-17T21:16:59.875Z,84.88
2023-01-17T21:19:28.452Z,85.53
2023-01-17T21:21:57.350Z,85.37
2023-01-17T21:24:25.928Z,86.11
2023-01-17T21:26:54.111Z,85.33
2023-01-17T21:29:28.721Z,85.80
2023-01-17T21:31:58.603Z,86.00
2023-01-17T21:34:27.537Z,86.33
2023-01-17T21:36:56.014Z,85.74
2023-01-17T21:39:24.663Z,86.54
2023-01-17T21:41:53.344Z,86.37
2023-01-17T21:44:23.558Z,86.43
2023-01-17T21:46:56.007Z,86.56
2023-01-17T21:49:26.237Z,86.47
2023-01-17T21:52:12.080Z,86.37
2023-01-17T21:54:57.679Z,86.18
2023-01-17T21:57:43.826Z,86.70
2023-01-17T22:00:15.512Z,86.75
2023-01-17T22:02:44.555Z,86.83
2023-01-17T22:05:16.409Z,87.23
2023-01-17T22:08:05.797Z,87.54
2023-01-17T22:10:44.312Z,87.65
2023-01-17T22:13:14.487Z,87.38
2023-01-17T22:15:42.853Z,86.97
2023-01-17T22:18:11.697Z,87.28
2023-01-17T22:20:42.759Z,87.82
2023-01-17T22:23:11.825Z,87.91
2023-01-17T22:25:40.023Z,87.32
2023-01-17T22:28:08.311Z,87.24
2023-01-17T22:30:37.177Z,87.39
2023-01-17T22:33:05.720Z,87.76
2023-01-17T22:35:33.950Z,87.61
2023-01-17T22:38:03.637Z,87.33
2023-01-17T22:40:32.843Z,88.15
2023-01-17T22:43:01.150Z,87.94
2023-01-17T22:45:29.564Z,87.71
2023-01-17T22:47:58.036Z,87.60
2023-01-17T22:50:26.226Z,88.36
2023-01-17T22:52:54.933Z,88.91
2023-01-17T22:55:24.683Z,88.35
2023-01-17T22:57:53.076Z,88.28
2023-01-17T23:00:21.766Z,88.66
2023-01-17T23:02:50.078Z,88.53
2023-01-17T23:05:18.473Z,88.66
2023-01-17T23:07:51.072Z,88.08
2023-01-17T23:10:33.407Z,88.82
2023-01-17T23:13:03.193Z,88.99
2023-01-17T23:15:49.084Z,89.20
2023-01-17T23:18:35.164Z,89.07
2023-01-17T23:21:03.415Z,88.81
2023-01-17T23:23:33.264Z,89.03
2023-01-17T23:26:02.148Z,88.32
2023-01-17T23:28:30.968Z,88.86
2023-01-17T23:31:04.873Z,89.06
2023-01-17T23:33:33.335Z,88.87
2023-01-17T23:36:01.621Z,88.68
2023-01-17T23:38:30.273Z,89.47
2023-01-17T23:41:21.078Z,89.09
2023-01-17T23:43:54.770Z,89.53
2023-01-17T23:46:23.929Z,88.79
2023-01-17T23:48:52.861Z,89.32
2023-01-17T23:51:21.252Z,88.90
2023-01-17T23:53:50.950Z,89.40
2023-01-17T23:56:23.181Z,89.47
2023-01-17T23:58:52.869Z,89.44
